< < Back
Terminal Aerodrome Forecast


Current Version              Previous Versions:   1  2  3  4  5  6  7  8  9  

Terminal Aerodrome Forecast

510
FTUS42 KGSP 052339
TAFCLT
TAF
KCLT 052339Z 0600/0624 19011KT P6SM VCSH SCT045 BKN120
     FM060300 20006KT P6SM SCT035 BKN250
     FM061500 23005KT P6SM SCT040
     FM062000 22007KT P6SM FEW045 SCT060=

Latest METAR

712
SAUS70 KWBC 060500 RRD
MTRCLT
METAR KCLT 060452Z 18008KT 10SM FEW010 SCT250 22/20 A3008 RMK AO2 SLP176
T02170200 403110217


USA.gov is the U.S. government's official web portal to all federal, state and local government web resources and services.